Time;durP1;ratioP1;P1;durP2;ratioP2;P2;SDS_P1;SDS_P2;PMS_P1;PMS_P2;Temp;Humidity;BMP_temperature;BMP_pressure;BME280_temperature;BME280_humidity;BME280_pressure;Samples;Min_cycle;Max_cycle;Signal;HPM_P1;HPM_P2
2023/11/22 00:01:21;;;;;;;4.43;4.03;;;7.00;99.90;;;7.43;100.00;98217.19;10398298;28;20637;-66
2023/11/22 00:06:24;;;;;;;4.47;3.30;;;6.90;99.90;;;7.34;100.00;98208.91;10397626;28;20618;-66
2023/11/22 00:11:27;;;;;;;3.50;3.30;;;6.90;99.90;;;7.22;100.00;98211.41;10399210;28;21038;-66
2023/11/22 00:16:32;;;;;;;3.33;3.13;;;6.80;99.90;;;7.23;100.00;98209.75;10395398;28;20222;-66
2023/11/22 00:21:36;;;;;;;3.50;3.30;;;6.80;99.90;;;7.20;100.00;98217.13;10394663;28;20284;-66
2023/11/22 00:26:39;;;;;;;3.57;3.30;;;6.80;99.90;;;7.28;100.00;98216.06;10394531;28;20221;-66
2023/11/22 00:31:44;;;;;;;3.97;3.67;;;6.80;99.90;;;7.31;100.00;98228.13;10398160;28;20230;-66
2023/11/22 00:36:48;;;;;;;4.40;4.10;;;6.80;99.90;;;7.25;100.00;98233.63;10395673;28;20701;-66
2023/11/22 00:41:52;;;;;;;4.27;3.97;;;6.80;99.90;;;6.64;100.00;98242.50;10395108;28;20233;-66
2023/11/22 00:46:57;;;;;;;4.80;4.40;;;6.30;99.90;;;6.56;100.00;98243.56;10397257;28;20437;-66
2023/11/22 00:52:00;;;;;;;4.90;4.40;;;6.20;99.90;;;6.49;100.00;98261.59;10396381;28;20232;-65
2023/11/22 00:57:06;;;;;;;6.17;5.57;;;6.10;99.90;;;6.35;100.00;98268.13;10397079;28;20225;-66
2023/11/22 01:02:11;;;;;;;5.47;4.97;;;6.00;99.90;;;6.16;100.00;98265.78;10395139;28;20232;-65
2023/11/22 01:07:14;;;;;;;7.23;6.53;;;5.90;99.90;;;6.39;100.00;98274.34;10396835;28;20249;-66
2023/11/22 01:12:18;;;;;;;7.47;6.77;;;6.00;99.90;;;6.16;100.00;98268.31;10390382;28;20236;-66
2023/11/22 01:17:23;;;;;;;7.90;7.20;;;5.80;99.90;;;5.97;100.00;98288.75;10392898;28;20753;-66
2023/11/22 01:22:27;;;;;;;8.73;7.90;;;5.70;99.90;;;6.08;100.00;98298.13;10392898;28;20226;-66
2023/11/22 01:27:30;;;;;;;9.10;8.17;;;5.70;99.90;;;5.96;100.00;98308.94;10397142;28;20221;-66
2023/11/22 01:32:35;;;;;;;8.87;8.00;;;5.60;99.90;;;5.78;100.00;98314.25;10395171;28;20224;-66
2023/11/22 01:37:38;;;;;;;10.17;7.97;;;5.50;99.90;;;5.61;100.00;98307.78;10396068;28;20234;-66
2023/11/22 01:42:41;;;;;;;8.30;7.50;;;5.30;99.90;;;5.57;100.00;98322.59;10392428;28;20221;-66
2023/11/22 01:47:46;;;;;;;7.53;6.83;;;5.30;99.90;;;5.45;100.00;98319.03;10392902;28;20228;-66
2023/11/22 01:52:49;;;;;;;6.90;6.20;;;5.20;99.90;;;5.51;100.00;98324.63;10392714;28;20727;-66
2023/11/22 01:57:52;;;;;;;6.87;6.27;;;5.20;99.90;;;5.67;100.00;98326.81;10391628;28;21339;-66
2023/11/22 02:02:57;;;;;;;6.43;5.83;;;5.30;99.90;;;5.38;100.00;98332.84;10395303;28;20229;-65
2023/11/22 02:08:01;;;;;;;6.87;6.27;;;5.00;99.90;;;5.08;100.00;98351.38;10395014;28;20240;-66
2023/11/22 02:13:07;;;;;;;7.27;6.67;;;4.80;99.90;;;4.93;100.00;98356.91;10392201;28;20233;-66
2023/11/22 02:18:11;;;;;;;8.10;7.40;;;4.70;99.90;;;4.88;100.00;98368.28;10391541;28;20225;-66
2023/11/22 02:23:18;;;;;;;8.70;7.90;;;4.60;99.90;;;4.89;100.00;98375.16;10392075;28;20225;-65
2023/11/22 02:28:21;;;;;;;8.70;7.90;;;4.60;99.90;;;4.89;100.00;98370.06;10391383;28;20714;-66
2023/11/22 02:33:24;;;;;;;8.70;7.80;;;4.60;99.90;;;4.82;100.00;98379.53;10392676;28;20229;-66
2023/11/22 02:38:29;;;;;;;9.07;8.17;;;4.50;99.90;;;4.73;100.00;98393.16;10392829;28;20375;-66
2023/11/22 02:43:32;;;;;;;10.60;8.27;;;4.50;99.90;;;4.84;100.00;98391.56;10391991;28;20229;-66
2023/11/22 02:48:37;;;;;;;9.40;8.50;;;4.50;99.90;;;4.92;100.00;98395.66;10399831;28;20744;-66
2023/11/22 02:53:43;;;;;;;9.67;8.77;;;4.60;99.90;;;4.75;100.00;98416.09;10400478;28;20245;-66
2023/11/22 02:58:46;;;;;;;9.70;8.77;;;4.40;99.90;;;4.65;100.00;98424.50;10397788;28;20248;-66
2023/11/22 03:03:50;;;;;;;8.57;7.77;;;4.30;99.90;;;4.37;100.00;98431.25;10401234;28;20704;-66
2023/11/22 03:08:54;;;;;;;8.70;7.80;;;4.10;99.90;;;4.30;100.00;98418.81;10399571;28;20249;-65
2023/11/22 03:13:58;;;;;;;9.43;8.53;;;4.10;99.90;;;4.40;100.00;98410.41;10398084;28;20225;-66
2023/11/22 03:19:02;;;;;;;8.77;7.97;;;4.10;99.90;;;4.37;100.00;98421.13;10397000;28;20233;-66
2023/11/22 03:24:08;;;;;;;9.13;8.13;;;4.10;99.90;;;4.24;100.00;98409.03;10399452;28;20896;-67
2023/11/22 03:29:11;;;;;;;8.53;7.47;;;4.00;99.90;;;4.25;100.00;98417.50;10407923;28;20225;-66
2023/11/22 03:34:15;;;;;;;9.13;8.23;;;4.00;99.90;;;4.22;100.00;98429.91;10404020;28;20557;-67
2023/11/22 03:39:19;;;;;;;9.63;8.63;;;4.00;99.90;;;4.15;100.00;98437.66;10411636;28;20303;-67
2023/11/22 03:44:23;;;;;;;9.07;7.93;;;3.90;99.90;;;4.22;100.00;98460.25;10413847;28;20252;-66
2023/11/22 03:49:26;;;;;;;9.50;8.43;;;3.90;99.90;;;4.22;100.00;98475.44;10411188;28;20588;-65
2023/11/22 03:54:30;;;;;;;9.37;8.57;;;3.90;99.90;;;4.20;100.00;98487.94;10397432;28;20721;-66
2023/11/22 03:59:36;;;;;;;9.83;8.87;;;3.90;99.90;;;4.37;100.00;98486.06;10397054;28;20225;-65
2023/11/22 04:04:40;;;;;;;10.10;9.17;;;4.00;99.90;;;4.23;100.00;98505.03;10397655;28;20777;-66
2023/11/22 04:09:45;;;;;;;9.57;8.40;;;3.90;99.90;;;4.24;100.00;98515.31;10401199;28;20232;-66
2023/11/22 04:14:48;;;;;;;9.07;8.07;;;3.90;99.90;;;4.19;100.00;98515.63;10405839;28;20280;-66
2023/11/22 04:19:52;;;;;;;8.83;7.90;;;3.90;99.90;;;4.06;100.00;98522.09;10404443;28;20693;-67
2023/11/22 04:24:57;;;;;;;8.43;7.63;;;3.80;99.90;;;4.19;100.00;98533.34;10400367;28;20228;-66
2023/11/22 04:30:01;;;;;;;9.30;8.40;;;3.80;99.90;;;4.19;100.00;98535.88;10398576;28;20257;-66
2023/11/22 04:35:05;;;;;;;8.47;7.67;;;3.80;99.90;;;4.07;100.00;98540.69;10394715;28;20229;-66
2023/11/22 04:40:14;;;;;;;8.47;7.57;;;3.70;99.90;;;4.07;100.00;98554.22;10393899;28;20230;-66
2023/11/22 04:45:17;;;;;;;8.73;7.93;;;3.70;99.90;;;4.13;100.00;98550.47;10396015;28;20284;-66
2023/11/22 04:50:21;;;;;;;8.80;7.90;;;3.80;99.90;;;4.12;100.00;98563.84;10393079;28;20228;-66
2023/11/22 04:55:25;;;;;;;9.03;7.73;;;3.80;99.90;;;4.02;100.00;98563.00;10395550;28;20236;-66
2023/11/22 05:00:29;;;;;;;8.40;7.63;;;3.70;99.90;;;3.93;100.00;98572.28;10393502;28;20237;-65
2023/11/22 05:05:32;;;;;;;9.50;8.10;;;3.60;99.90;;;3.86;100.00;98579.13;10393023;28;20226;-65
2023/11/22 05:10:36;;;;;;;9.40;8.47;;;3.50;99.90;;;3.97;100.00;98576.84;10394686;28;20237;-66
2023/11/22 05:15:39;;;;;;;8.93;8.03;;;3.60;99.90;;;3.93;100.00;98592.50;10394357;28;20221;-64
2023/11/22 05:20:44;;;;;;;8.73;7.87;;;3.50;99.90;;;3.82;100.00;98583.88;10394210;28;20755;-65
2023/11/22 05:25:48;;;;;;;9.33;8.43;;;3.40;99.90;;;3.95;100.00;98600.22;10405224;28;20614;-66
2023/11/22 05:30:51;;;;;;;8.57;7.73;;;3.50;99.90;;;4.03;100.00;98611.94;10413703;28;20260;-67
2023/11/22 05:35:55;;;;;;;10.40;9.30;;;3.60;99.90;;;3.99;100.00;98605.72;10398281;28;20233;-65
2023/11/22 05:40:59;;;;;;;9.60;8.60;;;3.60;99.90;;;4.08;100.00;98613.28;10396566;28;20621;-66
2023/11/22 05:46:02;;;;;;;8.23;7.43;;;3.70;99.90;;;4.18;100.00;98621.00;10393570;28;20241;-69
2023/11/22 05:51:06;;;;;;;8.93;8.03;;;3.70;99.90;;;4.18;100.00;98620.13;10396843;28;20793;-66
2023/11/22 05:56:13;;;;;;;8.33;7.47;;;3.70;99.90;;;4.06;100.00;98628.31;10397025;28;20233;-65
2023/11/22 06:01:16;;;;;;;8.57;7.67;;;3.60;99.90;;;4.11;100.00;98632.91;10397814;28;20229;-66
2023/11/22 06:06:21;;;;;;;8.63;7.83;;;3.60;99.90;;;4.06;100.00;98640.97;10396808;28;20316;-66
2023/11/22 06:11:26;;;;;;;8.90;8.00;;;3.60;99.90;;;4.02;100.00;98650.66;10396468;28;20304;-66
2023/11/22 06:16:29;;;;;;;8.57;7.77;;;3.60;99.90;;;4.03;100.00;98663.44;10396834;28;20308;-65
2023/11/22 06:21:32;;;;;;;9.00;7.93;;;3.60;99.90;;;4.03;100.00;98676.09;10396313;28;20745;-66
2023/11/22 06:26:37;;;;;;;7.67;6.97;;;3.60;99.90;;;4.08;100.00;98686.63;10396040;28;20217;-66
2023/11/22 06:31:40;;;;;;;9.03;8.10;;;3.60;99.90;;;4.09;100.00;98690.03;10396828;28;20229;-66
2023/11/22 06:36:43;;;;;;;8.40;7.60;;;3.60;99.90;;;4.01;100.00;98700.34;10398661;28;20240;-66
2023/11/22 06:41:47;;;;;;;8.77;7.97;;;3.50;99.90;;;4.03;100.00;98703.91;10391421;28;20236;-67
2023/11/22 06:46:52;;;;;;;9.13;8.23;;;3.60;99.90;;;4.02;100.00;98704.66;10396849;28;20222;-67
2023/11/22 06:51:56;;;;;;;7.70;7.00;;;3.60;99.90;;;4.16;100.00;98702.56;10395924;28;20224;-66
2023/11/22 06:57:00;;;;;;;9.10;8.20;;;3.60;99.90;;;4.11;100.00;98712.22;10393811;28;20226;-66
2023/11/22 07:02:04;;;;;;;8.80;7.97;;;3.60;99.90;;;4.16;100.00;98722.78;10392150;28;20241;-67
2023/11/22 07:07:10;;;;;;;8.23;7.43;;;3.70;99.90;;;4.16;100.00;98718.63;10397177;28;20269;-66
2023/11/22 07:12:15;;;;;;;8.73;7.83;;;3.70;99.90;;;4.10;100.00;98720.56;10395298;28;20241;-66
2023/11/22 07:17:18;;;;;;;8.60;7.80;;;3.60;99.90;;;4.13;100.00;98728.44;10399552;28;20349;-66
2023/11/22 07:22:23;;;;;;;8.93;8.03;;;3.60;99.90;;;4.27;100.00;98722.16;10397732;28;20649;-66
2023/11/22 07:27:28;;;;;;;8.50;7.70;;;3.80;99.90;;;4.27;100.00;98724.69;10395105;28;20254;-66
2023/11/22 07:32:31;;;;;;;8.50;7.60;;;3.70;99.90;;;4.18;100.00;98752.56;10399680;28;20758;-66
2023/11/22 07:37:35;;;;;;;8.73;7.90;;;3.70;99.90;;;4.16;100.00;98768.31;10400298;28;20325;-65
2023/11/22 07:42:40;;;;;;;9.00;8.10;;;3.70;99.90;;;4.23;100.00;98781.69;10402461;28;20218;-65
2023/11/22 07:47:43;;;;;;;8.83;8.03;;;3.80;99.90;;;4.18;100.00;98782.03;10402469;28;20325;-66
2023/11/22 07:52:48;;;;;;;8.90;8.10;;;3.70;99.90;;;4.13;100.00;98790.78;10403648;28;20226;-66
2023/11/22 07:57:55;;;;;;;8.53;7.73;;;3.60;99.90;;;4.00;100.00;98796.28;10403968;28;20245;-66
2023/11/22 08:03:01;;;;;;;8.83;8.10;;;3.50;99.90;;;4.04;100.00;98803.44;10400985;28;20759;-66
2023/11/22 08:08:07;;;;;;;9.10;8.20;;;3.60;99.90;;;4.02;100.00;98810.88;10400517;28;20233;-66
2023/11/22 08:13:12;;;;;;;9.00;8.20;;;3.50;99.90;;;3.98;100.00;98808.81;10401515;28;20221;-66
2023/11/22 08:18:16;;;;;;;10.97;9.87;;;3.50;99.90;;;3.73;100.00;98814.72;10400864;28;20620;-67
2023/11/22 08:23:20;;;;;;;10.90;10.00;;;3.30;99.90;;;3.74;100.00;98817.38;10402650;28;20718;-66
2023/11/22 08:28:25;;;;;;;11.40;10.23;;;3.30;99.90;;;3.52;100.00;98821.97;10398970;28;20737;-66
2023/11/22 08:33:28;;;;;;;11.77;10.60;;;3.20;99.90;;;3.52;100.00;98821.97;10401354;28;20226;-66
2023/11/22 08:38:33;;;;;;;11.43;10.23;;;3.00;99.90;;;3.56;100.00;98826.56;10399586;28;20283;-66
2023/11/22 08:43:37;;;;;;;10.60;9.60;;;3.00;99.90;;;3.45;100.00;98824.59;10398283;28;20230;-67
2023/11/22 08:48:41;;;;;;;10.87;9.93;;;3.00;99.90;;;3.43;100.00;98823.56;10399479;28;20226;-66
2023/11/22 08:53:45;;;;;;;11.17;9.90;;;3.00;99.90;;;3.39;100.00;98826.53;10400073;28;20253;-66
2023/11/22 08:58:50;;;;;;;11.03;9.93;;;3.00;99.90;;;3.43;100.00;98828.59;10396005;28;20986;-66
2023/11/22 09:03:53;;;;;;;11.13;10.07;;;3.00;99.90;;;3.36;100.00;98828.75;10400751;28;20233;-66
2023/11/22 09:08:57;;;;;;;11.73;10.33;;;2.90;99.90;;;3.44;100.00;98832.06;10396772;28;20224;-67
2023/11/22 09:14:04;;;;;;;10.43;9.43;;;3.00;99.90;;;3.53;100.00;98830.44;10398497;28;20226;-66
2023/11/22 09:19:07;;;;;;;10.17;9.03;;;3.10;99.90;;;3.20;99.85;98827.94;10399701;28;20230;-65
2023/11/22 09:24:11;;;;;;;10.33;9.43;;;2.90;99.90;;;3.22;99.79;98831.53;10395557;28;20226;-66
2023/11/22 09:29:15;;;;;;;10.07;9.03;;;2.80;99.90;;;3.33;100.00;98843.59;10397511;28;20567;-66
2023/11/22 09:34:19;;;;;;;9.43;8.60;;;2.90;99.90;;;3.38;100.00;98834.84;10394117;28;20310;-66
2023/11/22 09:39:24;;;;;;;10.87;9.73;;;3.00;99.90;;;3.26;99.63;98844.63;10398055;28;20240;-66
2023/11/22 09:44:29;;;;;;;9.80;8.80;;;2.90;99.90;;;3.08;99.80;98846.16;10392571;28;20232;-66
2023/11/22 09:49:34;;;;;;;10.00;9.00;;;2.80;99.90;;;3.13;100.00;98847.53;10397197;28;20257;-66
2023/11/22 09:54:40;;;;;;;11.77;9.03;;;2.80;99.90;;;2.88;98.32;98858.38;10396020;28;20213;-66
2023/11/22 09:59:44;;;;;;;10.83;9.80;;;2.70;99.90;;;3.11;100.00;98874.25;10395239;28;20234;-65
2023/11/22 10:04:48;;;;;;;11.83;10.63;;;2.70;99.90;;;3.36;100.00;98880.16;10397390;28;20717;-66
2023/11/22 10:09:52;;;;;;;10.03;9.13;;;3.00;99.90;;;3.49;100.00;98879.78;10395397;28;20238;-66
2023/11/22 10:14:56;;;;;;;10.17;9.17;;;3.10;99.90;;;3.48;100.00;98885.56;10395195;28;20225;-65
2023/11/22 10:20:00;;;;;;;9.30;8.40;;;3.10;99.90;;;3.54;99.31;98897.91;10395795;28;20287;-66
2023/11/22 10:25:03;;;;;;;9.77;8.87;;;3.10;99.90;;;3.61;99.59;98898.69;10396064;28;20314;-65
2023/11/22 10:30:10;;;;;;;9.10;8.20;;;3.20;99.90;;;3.55;98.25;98895.56;10395559;28;20237;-65
2023/11/22 10:35:15;;;;;;;9.63;8.60;;;3.20;99.90;;;3.51;96.26;98893.44;10393443;28;20229;-65
2023/11/22 10:40:19;;;;;;;9.07;8.20;;;3.20;99.90;;;3.51;97.51;98895.09;10396030;28;20237;-66
2023/11/22 10:45:26;;;;;;;8.80;8.00;;;3.20;99.90;;;3.52;95.93;98907.91;10392044;28;20684;-66
2023/11/22 10:50:29;;;;;;;8.30;7.60;;;3.10;99.90;;;3.73;98.93;98903.19;10394764;28;20253;-66
2023/11/22 10:55:34;;;;;;;9.77;8.20;;;3.30;99.90;;;3.76;98.02;98895.94;10397533;28;20306;-66
2023/11/22 11:00:43;;;;;;;7.50;6.80;;;3.40;99.90;;;3.84;95.91;98895.94;10395651;28;20229;-66
2023/11/22 11:05:53;;;;;;;7.73;7.07;;;3.40;99.90;;;3.95;93.97;98909.66;10397022;28;20229;-66
2023/11/22 11:10:58;;;;;;;7.53;6.83;;;3.50;99.90;;;3.78;91.80;98915.56;10401264;28;20233;-66
2023/11/22 11:16:03;;;;;;;7.47;6.87;;;3.40;99.90;;;3.90;93.42;98909.94;10402181;28;20713;-65
2023/11/22 11:21:11;;;;;;;8.77;7.87;;;3.50;99.90;;;3.92;95.97;98909.38;10404073;28;20275;-65
2023/11/22 11:26:21;;;;;;;9.30;8.40;;;3.50;99.90;;;4.03;96.50;98900.28;10400613;28;20709;-66
2023/11/22 11:31:33;;;;;;;8.57;7.80;;;3.50;99.90;;;4.01;93.26;98905.22;10400619;28;20229;-65
2023/11/22 11:36:39;;;;;;;7.90;7.20;;;3.50;99.90;;;4.07;92.45;98890.63;10401547;28;20320;-65
2023/11/22 11:41:42;;;;;;;8.10;7.40;;;3.60;99.90;;;4.22;95.09;98885.28;10399842;28;21419;-65
2023/11/22 11:46:47;;;;;;;9.20;7.97;;;3.70;99.90;;;4.07;90.58;98903.28;10402358;28;20222;-66
2023/11/22 11:51:52;;;;;;;8.93;8.13;;;3.60;99.90;;;4.03;89.58;98923.97;10399651;28;20752;-65
2023/11/22 11:57:00;;;;;;;9.17;8.27;;;3.50;99.90;;;3.98;91.57;98926.78;10400215;28;20713;-66
2023/11/22 12:02:06;;;;;;;9.00;8.20;;;3.50;99.90;;;4.07;92.57;98933.63;10403114;28;20233;-66
2023/11/22 12:07:09;;;;;;;8.37;7.67;;;3.60;99.90;;;4.10;91.70;98942.28;10399362;28;20232;-65
2023/11/22 12:12:12;;;;;;;7.70;6.87;;;3.60;99.90;;;4.13;90.99;98952.69;10399351;28;20721;-65
2023/11/22 12:17:18;;;;;;;8.67;7.43;;;3.60;99.90;;;3.78;86.50;98945.03;10399226;28;20232;-65
2023/11/22 12:22:22;;;;;;;7.83;7.10;;;3.40;99.90;;;3.98;91.93;98965.59;10395884;28;20321;-65
2023/11/22 12:27:25;;;;;;;7.80;7.00;;;3.50;99.90;;;4.14;93.22;98977.25;10400906;28;20228;-66
2023/11/22 12:32:29;;;;;;;9.20;8.40;;;3.50;99.90;;;4.15;93.38;98986.63;10400297;28;20230;-65
2023/11/22 12:37:33;;;;;;;9.20;8.30;;;3.60;99.90;;;4.13;92.18;98985.59;10400191;28;20232;-65
2023/11/22 12:42:48;;;;;;;8.47;7.77;;;3.50;99.90;;;4.04;91.96;98983.03;10398812;28;20230;-65
2023/11/22 12:47:54;;;;;;;8.83;8.13;;;3.50;99.90;;;4.17;97.30;98968.31;10400396;28;20606;-65
2023/11/22 12:52:57;;;;;;;8.40;7.60;;;3.60;99.90;;;3.99;91.52;98964.84;10399962;28;20788;-65
2023/11/22 12:58:03;;;;;;;9.13;8.33;;;3.50;99.90;;;3.95;87.85;98964.38;10399532;28;20235;-65
2023/11/22 13:03:10;;;;;;;7.50;6.93;;;3.40;99.90;;;4.19;96.80;98950.78;10401573;28;20226;-65
2023/11/22 13:08:14;;;;;;;8.43;7.67;;;3.50;99.90;;;4.09;91.24;98948.06;10398665;28;20328;-66
2023/11/22 13:13:17;;;;;;;7.53;6.83;;;3.50;99.90;;;4.06;87.27;98952.09;10396712;28;20256;-66
2023/11/22 13:18:22;;;;;;;9.43;8.63;;;3.50;99.90;;;4.04;86.91;98953.56;10399636;28;20240;-65
2023/11/22 13:23:25;;;;;;;8.33;7.53;;;3.50;99.90;;;3.98;87.21;98964.72;10398783;28;20292;-65
2023/11/22 13:28:28;;;;;;;7.87;7.23;;;3.40;99.90;;;3.96;89.54;98992.38;10398382;28;20241;-67
2023/11/22 13:33:33;;;;;;;7.70;7.00;;;3.40;99.90;;;3.99;91.95;99002.78;10399939;28;20225;-66
2023/11/22 13:38:36;;;;;;;8.80;7.90;;;3.40;99.90;;;3.87;89.33;98993.97;10397089;28;20777;-65
2023/11/22 13:43:40;;;;;;;9.57;8.67;;;3.40;99.90;;;3.82;89.14;98977.44;10397909;28;20236;-65
2023/11/22 13:48:44;;;;;;;8.67;7.97;;;3.30;99.90;;;3.82;91.93;98965.69;10401353;28;20264;-65
2023/11/22 13:53:52;;;;;;;10.17;9.17;;;3.30;99.90;;;3.79;90.30;98956.91;10400580;28;20229;-66
2023/11/22 13:58:57;;;;;;;14.03;12.73;;;3.30;99.90;;;3.70;87.30;98969.53;10399509;28;20229;-66
2023/11/22 14:04:02;;;;;;;8.87;8.07;;;3.20;99.90;;;3.70;89.21;98956.88;10396542;28;20313;-66
2023/11/22 14:09:08;;;;;;;9.17;8.30;;;3.20;99.90;;;3.52;86.04;98958.44;10397635;28;20804;-66
2023/11/22 14:14:11;;;;;;;11.20;10.10;;;3.10;99.90;;;3.55;88.12;98970.50;10396989;28;20229;-66
2023/11/22 14:19:18;;;;;;;10.20;9.20;;;3.00;99.90;;;3.48;88.74;98968.97;10399885;28;20620;-66
2023/11/22 14:24:21;;;;;;;9.17;8.27;;;3.00;99.90;;;3.60;93.94;98995.47;10400329;28;20234;-67
2023/11/22 14:29:25;;;;;;;10.60;9.60;;;3.10;99.90;;;3.61;95.40;99027.63;10397565;28;20275;-65
2023/11/22 14:34:29;;;;;;;12.77;11.47;;;3.00;99.90;;;3.64;94.21;99037.16;10396606;28;20234;-64
2023/11/22 14:39:34;;;;;;;11.20;10.10;;;3.10;99.90;;;3.67;91.67;99026.47;10396957;28;20225;-65
2023/11/22 14:44:37;;;;;;;11.60;10.40;;;3.10;99.90;;;3.47;87.61;99027.84;10400796;28;20232;-65
2023/11/22 14:49:42;;;;;;;11.70;10.70;;;3.10;99.90;;;3.57;91.68;99017.91;10404825;28;20225;-65
2023/11/22 14:54:51;;;;;;;13.20;11.90;;;3.00;99.90;;;3.64;90.92;99013.50;10405047;28;20217;-65
2023/11/22 14:59:56;;;;;;;17.17;15.47;;;3.10;99.90;;;3.58;91.45;99007.09;10403398;28;20269;-66
2023/11/22 15:05:01;;;;;;;12.20;10.83;;;3.00;99.90;;;3.46;89.68;99015.91;10398690;28;20634;-65
2023/11/22 15:10:05;;;;;;;11.83;10.63;;;2.90;99.90;;;3.49;93.29;99021.31;10400599;28;20238;-65
2023/11/22 15:15:10;;;;;;;11.60;10.60;;;2.90;99.90;;;3.41;91.01;99003.56;10401774;28;20221;-65
2023/11/22 15:20:15;;;;;;;10.90;9.83;;;2.80;99.90;;;3.33;90.60;98997.72;10395801;28;20230;-65
2023/11/22 15:25:19;;;;;;;10.33;9.43;;;2.80;99.90;;;3.31;90.74;99000.06;10401641;28;20232;-65
2023/11/22 15:30:22;;;;;;;11.40;10.20;;;2.80;99.90;;;3.44;94.54;99004.78;10393271;28;20243;-65
2023/11/22 15:35:27;;;;;;;12.13;10.90;;;2.90;99.90;;;3.56;97.16;99002.59;10400490;28;20222;-65
2023/11/22 15:40:30;;;;;;;11.90;10.70;;;3.00;99.90;;;3.53;92.53;99012.41;10400563;28;20640;-65
2023/11/22 15:45:35;;;;;;;10.93;9.83;;;3.00;99.90;;;3.34;88.74;99043.34;10401157;28;20232;-66
2023/11/22 15:50:40;;;;;;;11.60;10.50;;;2.80;99.90;;;3.15;90.67;99021.97;10406098;28;20713;-65
2023/11/22 15:55:43;;;;;;;10.60;9.60;;;2.70;99.90;;;3.15;93.21;99045.59;10400967;28;20276;-65
2023/11/22 16:00:47;;;;;;;10.90;9.87;;;2.70;99.90;;;3.13;91.23;99052.09;10399779;28;20226;-66
2023/11/22 16:05:53;;;;;;;10.40;9.33;;;2.60;99.90;;;3.20;95.44;99050.22;10401037;28;20233;-66
2023/11/22 16:10:57;;;;;;;12.33;11.20;;;2.70;99.90;;;3.28;98.21;99059.50;10402926;28;20222;-65
2023/11/22 16:16:01;;;;;;;12.87;11.57;;;2.80;99.90;;;3.35;98.78;99056.91;10401435;28;20237;-65
2023/11/22 16:21:07;;;;;;;12.17;10.80;;;2.80;99.90;;;3.29;95.30;99052.09;10394831;28;20236;-66
2023/11/22 16:26:11;;;;;;;10.30;9.40;;;2.70;99.90;;;3.43;99.18;99056.03;10397066;28;20276;-64
2023/11/22 16:31:15;;;;;;;12.50;11.30;;;2.80;99.90;;;3.31;94.64;99064.88;10398795;28;20767;-65
2023/11/22 16:36:20;;;;;;;15.50;14.03;;;2.80;99.90;;;3.41;98.31;99057.53;10396245;28;20244;-65
2023/11/22 16:41:25;;;;;;;14.07;12.67;;;2.80;99.90;;;3.45;100.00;99064.69;10395292;28;20601;-65
2023/11/22 16:46:29;;;;;;;15.20;13.60;;;2.80;99.90;;;3.35;95.36;99077.09;10398019;28;20663;-65
2023/11/22 16:51:33;;;;;;;17.10;15.37;;;2.80;99.90;;;3.39;98.59;99075.03;10403647;28;20796;-66
2023/11/22 16:56:37;;;;;;;15.60;13.83;;;2.80;99.90;;;3.44;99.35;99073.00;10399107;28;20233;-64
2023/11/22 17:01:40;;;;;;;18.80;16.23;;;2.90;99.90;;;3.46;97.35;99076.56;10369270;28;20262;-65
2023/11/22 17:06:45;;;;;;;16.70;14.43;;;2.90;99.90;;;3.52;99.19;99078.84;10352351;28;20226;-65
2023/11/22 17:11:48;;;;;;;12.47;11.33;;;2.90;99.90;;;3.52;99.61;99076.31;10324642;28;20245;-66
2023/11/22 17:16:51;;;;;;;12.97;11.77;;;2.90;99.90;;;3.50;96.75;99086.28;10326144;28;20230;-65
2023/11/22 17:21:56;;;;;;;12.63;11.37;;;2.80;99.90;;;3.48;96.57;99102.00;10305620;28;20227;-65
2023/11/22 17:27:00;;;;;;;15.50;13.90;;;2.80;99.90;;;3.41;94.51;99110.59;10385486;28;20832;-64
2023/11/22 17:32:04;;;;;;;13.73;12.43;;;2.80;99.90;;;3.51;99.27;99113.31;10387260;28;20230;-66
2023/11/22 17:37:09;;;;;;;13.43;12.23;;;2.90;99.90;;;3.51;99.22;99125.97;10391923;28;20229;-65
2023/11/22 17:42:12;;;;;;;14.77;13.27;;;2.90;99.90;;;3.51;96.61;99128.50;10389085;28;20233;-65
2023/11/22 17:47:16;;;;;;;14.20;12.70;;;2.90;99.90;;;3.45;97.00;99144.66;10388529;28;20222;-65
2023/11/22 17:52:20;;;;;;;14.37;13.07;;;2.80;99.90;;;3.39;96.34;99160.94;10388998;28;20233;-66
2023/11/22 17:57:24;;;;;;;14.20;12.90;;;2.80;99.90;;;3.39;96.43;99152.47;10389369;28;20655;-65
2023/11/22 18:02:28;;;;;;;13.17;11.77;;;2.80;99.90;;;3.24;93.86;99153.41;10389167;28;20242;-65
2023/11/22 18:07:33;;;;;;;16.67;12.77;;;2.60;99.90;;;3.32;97.21;99147.50;10393713;28;20662;-66
2023/11/22 18:12:36;;;;;;;14.70;13.27;;;2.80;99.90;;;3.37;99.10;99156.47;10387278;28;20222;-65
2023/11/22 18:17:39;;;;;;;13.70;12.30;;;2.80;99.90;;;3.43;96.81;99141.06;10390429;28;20934;-65
2023/11/22 18:22:44;;;;;;;11.10;10.00;;;2.70;99.90;;;3.47;98.09;99139.03;10384918;28;20306;-65
2023/11/22 18:27:47;;;;;;;11.23;9.53;;;2.80;99.90;;;3.50;99.16;99144.41;10391801;28;20240;-66
2023/11/22 18:32:50;;;;;;;10.97;10.03;;;2.80;99.90;;;3.43;98.32;99139.41;10393282;28;20221;-64
2023/11/22 18:37:55;;;;;;;314.53;188.30;;;2.80;99.90;;;3.38;97.41;99138.97;10386424;28;20236;-65
2023/11/22 18:42:59;;;;;;;23.63;19.07;;;2.80;99.90;;;3.10;96.56;99124.16;10379946;28;20597;-66
2023/11/22 18:48:03;;;;;;;13.83;12.53;;;2.60;99.90;;;3.17;98.82;99135.03;10389424;28;20327;-64
2023/11/22 18:53:08;;;;;;;13.00;11.80;;;2.60;99.90;;;3.32;100.00;99139.91;10381029;28;20225;-64
2023/11/22 18:58:11;;;;;;;19.33;17.50;;;2.80;99.90;;;3.38;100.00;99131.38;10402024;28;20226;-65
2023/11/22 19:03:14;;;;;;;12.60;11.43;;;2.80;99.90;;;3.45;98.38;99124.44;10403367;28;20662;-65
2023/11/22 19:08:19;;;;;;;13.53;12.23;;;2.80;99.90;;;3.39;97.65;99114.59;10383922;28;20233;-65
2023/11/22 19:13:23;;;;;;;12.73;11.53;;;2.70;99.90;;;3.39;97.59;99112.06;10386241;28;20214;-65
2023/11/22 19:18:27;;;;;;;11.67;10.57;;;2.80;99.90;;;3.30;97.29;99118.69;10387603;28;20240;-65
2023/11/22 19:23:32;;;;;;;13.47;12.17;;;2.70;99.90;;;3.46;98.88;99111.94;10386418;28;20237;-65
2023/11/22 19:28:35;;;;;;;13.40;12.10;;;2.80;99.90;;;3.39;96.08;99120.53;10390996;28;20674;-64
2023/11/22 19:33:39;;;;;;;13.10;11.80;;;2.70;99.90;;;3.32;97.69;99128.22;10398488;28;20218;-65
2023/11/22 19:38:44;;;;;;;19.57;17.60;;;2.70;99.90;;;3.28;98.56;99125.19;10395163;28;20222;-66
2023/11/22 19:43:47;;;;;;;13.23;11.93;;;2.70;99.90;;;3.31;98.07;99130.56;10396005;28;20309;-66
2023/11/22 19:48:50;;;;;;;12.90;11.60;;;2.70;99.90;;;3.16;99.48;99110.53;10395595;28;20240;-66
2023/11/22 19:53:55;;;;;;;12.40;11.20;;;2.60;99.90;;;3.20;100.00;99119.31;10393314;28;20304;-66
2023/11/22 19:58:58;;;;;;;13.63;12.30;;;2.60;99.90;;;3.27;100.00;99123.41;10394665;28;20225;-66
2023/11/22 20:04:01;;;;;;;16.10;14.33;;;2.60;99.90;;;3.34;100.00;99125.81;10403971;28;20233;-65
2023/11/22 20:09:06;;;;;;;15.23;13.63;;;2.60;99.90;;;3.32;100.00;99139.91;10410953;28;20218;-67
2023/11/22 20:14:10;;;;;;;12.70;11.50;;;2.70;99.90;;;3.31;99.82;99148.25;10406838;28;20691;-68
2023/11/22 20:19:13;;;;;;;12.60;11.40;;;2.70;99.90;;;3.34;100.00;99141.00;10401119;28;20248;-66
2023/11/22 20:24:18;;;;;;;12.03;10.83;;;2.60;99.90;;;3.31;100.00;99133.97;10392716;28;20225;-67
2023/11/22 20:29:21;;;;;;;14.13;12.73;;;2.70;99.90;;;3.36;100.00;99124.38;10402606;28;20237;-67
2023/11/22 20:34:24;;;;;;;12.23;10.93;;;2.70;99.90;;;3.36;100.00;99110.09;10393791;28;20232;-65
2023/11/22 20:39:29;;;;;;;12.30;11.00;;;2.70;99.90;;;3.65;97.18;99098.72;10393432;28;20241;-66
2023/11/22 20:44:32;;;;;;;11.73;10.67;;;2.90;99.90;;;3.35;99.42;99098.22;10393099;28;20232;-65
2023/11/22 20:49:37;;;;;;;12.33;11.03;;;2.70;99.90;;;3.33;99.95;99088.69;10394559;28;20236;-67
2023/11/22 20:54:42;;;;;;;12.50;11.30;;;2.70;99.90;;;3.28;99.29;99089.81;10392106;28;20240;-66
2023/11/22 20:59:45;;;;;;;12.70;11.40;;;2.60;99.90;;;3.28;97.54;99103.34;10402654;28;20297;-64
2023/11/22 21:04:48;;;;;;;12.67;11.50;;;2.70;99.90;;;3.29;97.77;99101.69;10405685;28;20239;-64
2023/11/22 21:09:53;;;;;;;14.83;13.33;;;2.70;99.90;;;3.34;97.90;99100.56;10408309;28;20239;-67
2023/11/22 21:14:58;;;;;;;17.30;15.50;;;2.70;99.90;;;3.30;97.19;99101.88;10390701;28;20267;-66